0TX1 – Local Weather Observations

Pecan Plantation

This weather station is operated by a private user located just north of the field. Data is gathered via OpenWeatherMap.org.

Last updated:
2020-06-07 06:53:17(1:53 am)

Temperature: 80.6 °F

Sunrise / Sunset: 6:21 am / 8:37 pm

Civil Dawn / Dusk: 5:53 am / 9:05 pm

Nearby METARs

KGDJ 070635Z AUTO 10004KT 10SM SCT065 28/21 A2987 RMK AO2 T02800213

KCPT 070635Z AUTO 09005KT 10SM FEW060 FEW070 26/23 A2988 RMK A01 LTG DSNT ALQDS

KFWS 070635Z AUTO 00000KT 10SM CLR 25/21 A2987 RMK AO2 T02510206 PWINO

KSEP 070635Z AUTO 10004KT 10SM CLR 25/20 A2990 RMK AO2 T02500197